CMA CGM Fortuna — A8OF7 — position and weather

sailwx.info

Track history (hours):
 
Tides and Currents Weather Stations Pressure Air Temp Water Temp Dewpoint Dewpoint Depression Visibility Wind Speed Wind Dir Waves Ship Positions

CMA CGM Fortuna

Last reported at 2017-Sep-15 10:45 UTC. Time now 2017-Sep-20 21:54 UTC.
Position N 32°10' W 117°28'.

Length 204 m; beam 28 m; draft 9.5 m.

Type: Cargo ship. MMSI: 636017731.

Date/timePositionNaut miles runAvg speedWind from/ knotsBaromVisibWave heightAir tempDewpointWater temp
2017-Sep-15 10:45N 32°10' W 117°28'416.6
2017-Sep-15 10:30N 32°14' W 117°29'714.5
2017-Sep-15 10:00N 32°21' W 117°32'612.9
2017-Sep-15 09:31N 32°27' W 117°34'713.0
2017-Sep-15 09:00N 32°33' W 117°37'815.2
2017-Sep-15 08:30N 32°39' W 117°42'815.8
2017-Sep-15 08:00N 32°44' W 117°49'816.2
2017-Sep-15 07:30N 32°50' W 117°57'816.2
2017-Sep-15 07:01N 32°55' W 118°04'815.9
2017-Sep-15 06:30N 33°01' W 118°11'1416.1
2017-Sep-15 05:36N 33°10' W 118°24'316.0
2017-Sep-15 05:24N 33°12' W 118°27'1815.9
2017-Sep-15 04:17N 33°25' W 118°41'1516.0
2017-Sep-15 03:20N 33°38' W 118°52'515.9
2017-Sep-15 02:59N 33°42' W 118°55'816.3
2017-Sep-15 02:30N 33°49' W 119°01'816.2
2017-Sep-15 02:00N 33°55' W 119°06'713.7
2017-Sep-15 01:31N 34°00' W 119°12'6 9.0
2017-Sep-15 00:53N 34°06' W 119°14'3 0.4
2017-Sep-14 17:13N 34°09' W 119°12'0 0.0
2017-Sep-14 12:32N 34°09' W 119°12'0 0.0
2017-Sep-14 12:20N 34°09' W 119°12'0 0.0
2017-Sep-14 05:35N 34°09' W 119°12'0 0.0
2017-Sep-14 04:34N 34°09' W 119°12'0 0.0
2017-Sep-13 23:14N 34°09' W 119°12'0 0.0
2017-Sep-13 22:50N 34°09' W 119°12'0 0.0
2017-Sep-13 21:49N 34°09' W 119°12'0 0.0
2017-Sep-13 21:19N 34°09' W 119°12'0 0.0
2017-Sep-13 19:27N 34°09' W 119°12'0 0.0
2017-Sep-13 18:09N 34°09' W 119°12'0 0.0
2017-Sep-13 17:51N 34°09' W 119°12'0 0.0
2017-Sep-13 15:23N 34°09' W 119°12'0 0.0
2017-Sep-13 14:52N 34°09' W 119°12'0 0.0
2017-Sep-13 13:31N 34°09' W 119°12'0 0.0
2017-Sep-13 13:19N 34°09' W 119°12'0 1.3
2017-Sep-13 13:01N 34°09' W 119°13'3 6.5
2017-Sep-13 12:29N 34°05' W 119°14'510.0
2017-Sep-13 12:00N 34°02' W 119°10'714.1
2017-Sep-13 11:30N 33°55' W 119°06'816.0
2017-Sep-13 11:00N 33°49' W 119°01'816.7
2017-Sep-13 10:30N 33°42' W 118°55'816.6
2017-Sep-13 10:00N 33°35' W 118°49'816.9
2017-Sep-13 09:30N 33°28' W 118°44'816.6
2017-Sep-13 09:00N 33°21' W 118°38'816.5
2017-Sep-13 08:31N 33°15' W 118°32'816.6
2017-Sep-13 08:01N 33°10' W 118°24'916.9
2017-Sep-13 07:30N 33°04' W 118°16'816.7
2017-Sep-13 07:01N 32°59' W 118°09'917.1
2017-Sep-13 06:30N 32°53' W 118°01'917.1
2017-Sep-13 06:00N 32°47' W 117°54'917.3
2017-Sep-13 05:31N 32°42' W 117°46'917.1
2017-Sep-13 05:01N 32°34' W 117°41'917.5
2017-Sep-13 04:31N 32°27' W 117°36'815.5
2017-Sep-13 04:01N 32°19' W 117°32'611.6
2017-Sep-13 03:29N 32°14' W 117°30'1312.2
2017-Sep-13 02:23N 32°01' W 117°24'  
2017-Sep-10 20:00N 20°18' W 107°00'   330 / 161009.010.8 31.529.6
Track history (hours):
 
Tides and Currents Weather Stations Pressure Air Temp Water Temp Dewpoint Dewpoint Depression Visibility Wind Speed Wind Dir Waves Ship Positions

CMA CGM Fortuna

Last reported at 2017-Sep-15 10:45 UTC. Time now 2017-Sep-20 21:54 UTC.
Position N 32°10' W 117°28'.

Length 204 m; beam 28 m; draft 9.5 m.

Type: Cargo ship. MMSI: 636017731.

Date/timePositionNaut miles runAvg speedWind from/ knotsBaromVisibWave heightAir tempDewpointWater temp
2017-Sep-15 10:45N 32°10' W 117°28'416.6
2017-Sep-15 10:30N 32°14' W 117°29'714.5
2017-Sep-15 10:00N 32°21' W 117°32'612.9
2017-Sep-15 09:31N 32°27' W 117°34'713.0
2017-Sep-15 09:00N 32°33' W 117°37'815.2
2017-Sep-15 08:30N 32°39' W 117°42'815.8
2017-Sep-15 08:00N 32°44' W 117°49'816.2
2017-Sep-15 07:30N 32°50' W 117°57'816.2
2017-Sep-15 07:01N 32°55' W 118°04'815.9
2017-Sep-15 06:30N 33°01' W 118°11'1416.1
2017-Sep-15 05:36N 33°10' W 118°24'316.0
2017-Sep-15 05:24N 33°12' W 118°27'1815.9
2017-Sep-15 04:17N 33°25' W 118°41'1516.0
2017-Sep-15 03:20N 33°38' W 118°52'515.9
2017-Sep-15 02:59N 33°42' W 118°55'816.3
2017-Sep-15 02:30N 33°49' W 119°01'816.2
2017-Sep-15 02:00N 33°55' W 119°06'713.7
2017-Sep-15 01:31N 34°00' W 119°12'6 9.0
2017-Sep-15 00:53N 34°06' W 119°14'3 0.4
2017-Sep-14 17:13N 34°09' W 119°12'0 0.0
2017-Sep-14 12:32N 34°09' W 119°12'0 0.0
2017-Sep-14 12:20N 34°09' W 119°12'0 0.0
2017-Sep-14 05:35N 34°09' W 119°12'0 0.0
2017-Sep-14 04:34N 34°09' W 119°12'0 0.0
2017-Sep-13 23:14N 34°09' W 119°12'0 0.0
2017-Sep-13 22:50N 34°09' W 119°12'0 0.0
2017-Sep-13 21:49N 34°09' W 119°12'0 0.0
2017-Sep-13 21:19N 34°09' W 119°12'0 0.0
2017-Sep-13 19:27N 34°09' W 119°12'0 0.0
2017-Sep-13 18:09N 34°09' W 119°12'0 0.0
2017-Sep-13 17:51N 34°09' W 119°12'0 0.0
2017-Sep-13 15:23N 34°09' W 119°12'0 0.0
2017-Sep-13 14:52N 34°09' W 119°12'0 0.0
2017-Sep-13 13:31N 34°09' W 119°12'0 0.0
2017-Sep-13 13:19N 34°09' W 119°12'0 1.3
2017-Sep-13 13:01N 34°09' W 119°13'3 6.5
2017-Sep-13 12:29N 34°05' W 119°14'510.0
2017-Sep-13 12:00N 34°02' W 119°10'714.1
2017-Sep-13 11:30N 33°55' W 119°06'816.0
2017-Sep-13 11:00N 33°49' W 119°01'816.7
2017-Sep-13 10:30N 33°42' W 118°55'816.6
2017-Sep-13 10:00N 33°35' W 118°49'816.9
2017-Sep-13 09:30N 33°28' W 118°44'816.6
2017-Sep-13 09:00N 33°21' W 118°38'816.5
2017-Sep-13 08:31N 33°15' W 118°32'816.6
2017-Sep-13 08:01N 33°10' W 118°24'916.9
2017-Sep-13 07:30N 33°04' W 118°16'816.7
2017-Sep-13 07:01N 32°59' W 118°09'917.1
2017-Sep-13 06:30N 32°53' W 118°01'917.1
2017-Sep-13 06:00N 32°47' W 117°54'917.3
2017-Sep-13 05:31N 32°42' W 117°46'917.1
2017-Sep-13 05:01N 32°34' W 117°41'917.5
2017-Sep-13 04:31N 32°27' W 117°36'815.5
2017-Sep-13 04:01N 32°19' W 117°32'611.6
2017-Sep-13 03:29N 32°14' W 117°30'1312.2
2017-Sep-13 02:23N 32°01' W 117°24'  
2017-Sep-10 20:00N 20°18' W 107°00'   330 / 161009.010.8 31.529.6

Dump ship's entire track history